Hlavní strana
METAR-TAF:

METAR-TAF

Letiště :

Ivalo, Finsko

zeměpisná šířka: 68-37N, zeměpisná délka: 027-25E, výška: 147 m

Aktuální stav počasí

Zpráva byla vytvořena před 26 minutami, v 22:50 UTC
Severovýchodní vítr 10 kt
Teplota -2°C
Vlhkost vzduchu 86%
Tlak 986 hPa
Viditelnost 10 km a více
Polojasno ve výšce 1500 ft
Oblačno až skoro zataženo ve výšce 3100 ft
slabé sněhové přeháňky

METAR: EFIV 212250Z AUTO 05010KT 9999 -SHSN SCT015 BKN031 M02/M04 Q0986

Čas: 02:16 (23:16 UTC)

Předpověď počasí

Zpráva byla vytvořena před 5 hodinami a 45 minutami, v 17:31 UTC
Předpověď platná od 21 v 18 UTC do 21 v 21 UTC
Východoseverovýchodní vítr 8 kt
Viditelnost 10 km a více
Oblačno až skoro zataženo ve výšce 2000 ft
Pravděpodobnost 30% :
Dočasný
od 21 v 18 UTC do 21 v 21 UTC
Viditelnost: 7000 m
Oblačno až skoro zataženo ve výšce 1200 ft
slabé sněžení

TAF: EFIV 211731Z 2118/2121 06008KT 9999 BKN020 PROB30 TEMPO 2118/2121 7000 -SN BKN012

Stav a předpovědi počasí z více než 4 000 letišť (zprávy METAR a TAF).

Červené a žluté tečky na mapě představují dostupné meteorologické stanice.

Když kurzor umístíte na tečku, zobrazí se název stanice.

Pak kliknutím zobrazíte stav a předpověď počasí.

Chcete-li změnit mapu, kliknutím na zelené tlačítko se znaménkem +mapu přiblížíte, kliknutím na zelené tlačítko se znaménkem – mapu oddálíte a kliknutím na zelené šipky přejdete na sousední mapy.


METAR-TAF: